Terminal Aerodrome Forecast
Issued by NWS Twin Cities, MN

Home | Current Version | Previous Version | Graphics & Text | Print | Product List | Glossary On
Versions: 1 2 3 4 5 6 7 8 9 10 11 12 13 14 15 16 17 18 19 20 21 22 23 24 25 26 27 28 29 30 31 32 33
000
FTUS43 KMPX 041738
TAFMSP
TAF
KMSP 041738Z 0418/0524 18008KT 5SM BR OVC004
     FM041900 20008KT P6SM SCT008 OVC015
     FM042100 22007KT P6SM OVC020
     FM050000 22006KT P6SM SKC
     FM050900 17004KT P6SM BKN150
     FM051500 14009KT P6SM OVC090
     FM051800 18013G22KT P6SM SCT035 OVC090=

USA.gov is the U.S. government's official web portal to all federal, state and local government web resources and services.